K6NC Weather Reports


Display with metric or nautical units.
time (UTC)temp
F
wind
direction
speed
MPH
gust
MPH
rain 1hr
in
rain 24hr
in
rain mn
in
humidity
%
barometer
mb
20260507052010 61 224 2.0 4.0 0.00 0.00 0.00 82 1017.6
20260507051538 61 227 2.0 7.0 0.00 0.00 0.00 81 1017.6
20260507051010 62 217 3.0 7.0 0.00 0.00 0.00 81 1017.5
20260507050514 62 247 3.0 8.0 0.00 0.00 0.00 81 1017.6
20260507050035 62 244 4.0 8.0 0.00 0.00 0.00 81 1017.6
20260507045514 62 241 3.0 8.0 0.00 0.00 0.00 81 1017.6
20260507045014 62 256 4.0 8.0 0.00 0.00 0.00 81 1017.5
20260507044531 62 237 4.0 8.0 0.00 0.00 0.00 81 1017.5
20260507044012 62 247 4.0 7.0 0.00 0.00 0.00 81 1017.4
20260507043512 63 218 3.0 7.0 0.00 0.00 0.00 81 1017.5
20260507043030 63 240 2.0 9.0 0.00 0.00 0.00 80 1017.5
20260507042510 63 258 3.0 10.0 0.00 0.00 0.00 80 1017.4
20260507042012 64 248 5.0 10.0 0.00 0.00 0.00 79 1017.3
20260507041529 64 261 5.0 10.0 0.00 0.00 0.00 79 1017.3
20260507041013 64 253 6.0 10.0 0.00 0.00 0.00 79 1017.2
20260507040514 64 245 5.0 10.0 0.00 0.00 0.00 80 1017.2
20260507040030 64 267 5.0 10.0 0.00 0.00 0.00 80 1017.1
20260507035512 65 255 4.0 8.0 0.00 0.00 0.00 79 1017.1
20260507035012 65 249 4.0 8.0 0.00 0.00 0.00 78 1017.0
20260507034536 66 248 4.0 9.0 0.00 0.00 0.00 78 1017.0
20260507034013 66 253 5.0 11.0 0.00 0.00 0.00 77 1016.9
20260507033513 66 252 7.0 11.0 0.00 0.00 0.00 76 1016.9
20260507033039 66 237 0.0 2.0 0.00 0.00 0.00 76 1016.8
20260507032512 67 227 0.0 3.0 0.00 0.00 0.00 77 1016.8
20260507032016 67 0 1.0 3.0 0.00 0.00 0.00 76 1016.6
20260507031527 67 336 0.0 2.0 0.00 0.00 0.00 74 1016.5
20260507031017 68 0 0.0 2.0 0.00 0.00 0.00 74 1016.5
20260507030513 68 0 0.0 2.0 0.00 0.00 0.00 73 1016.6
20260507030029 69 336 0.0 2.0 0.00 0.00 0.00 71 1016.5
20260507025513 69 0 0.0 0.0 0.00 0.00 0.00 68 1016.5
20260507025015 69 0 0.0 0.0 0.00 0.00 0.00 69 1016.5
20260507024533 70 0 0.0 0.0 0.00 0.00 0.00 68 1016.4
20260507024012 70 0 0.0 0.0 0.00 0.00 0.00 68 1016.4
20260507023513 70 0 0.0 0.0 0.00 0.00 0.00 69 1016.4
20260507023034 70 0 0.0 0.0 0.00 0.00 0.00 70 1016.4
20260507022511 70 0 0.0 0.0 0.00 0.00 0.00 69 1016.3
20260507022010 71 0 0.0 1.0 0.00 0.00 0.00 68 1016.3
20260507021528 71 0 0.0 2.0 0.00 0.00 0.00 67 1016.2
20260507021015 71 0 0.0 2.0 0.00 0.00 0.00 65 1016.3
20260507020512 71 336 0.0 2.0 0.00 0.00 0.00 64 1016.3
20260507020030 71 0 0.0 2.0 0.00 0.00 0.00 66 1016.4
20260507015512 71 0 0.0 2.0 0.00 0.00 0.00 67 1016.3
20260507015021 71 333 0.0 3.0 0.00 0.00 0.00 65 1016.4
20260507014529 72 328 0.0 3.0 0.00 0.00 0.00 64 1016.3
20260507014011 72 346 1.0 3.0 0.00 0.00 0.00 64 1016.3
20260507013511 72 44 1.0 3.0 0.00 0.00 0.00 61 1016.4
20260507013028 72 0 1.0 5.0 0.00 0.00 0.00 64 1016.4
20260507012514 72 0 0.0 5.0 0.00 0.00 0.00 64 1016.4
20260507012015 72 71 2.0 5.0 0.00 0.00 0.00 64 1016.3
20260507011537 72 43 2.0 4.0 0.00 0.00 0.00 64 1016.4
20260507011012 72 18 1.0 5.0 0.00 0.00 0.00 63 1016.4
20260507010512 72 323 2.0 5.0 0.00 0.00 0.00 66 1016.5
20260507010030 72 312 2.0 4.0 0.00 0.00 0.00 65 1016.4
20260507005513 72 19 2.0 4.0 0.00 0.00 0.00 63 1016.5
20260507005013 72 71 0.0 4.0 0.00 0.00 0.00 63 1016.4
20260507004536 73 352 1.0 4.0 0.00 0.00 0.00 64 1016.4
20260507004013 73 0 1.0 6.0 0.00 0.00 0.00 59 1016.3
20260507003512 73 0 2.0 6.0 0.00 0.00 0.00 60 1016.4
20260507003028 73 295 2.0 5.0 0.00 0.00 0.00 61 1016.4
20260507002512 73 348 1.0 4.0 0.00 0.00 0.00 62 1016.3
20260507002017 74 334 2.0 5.0 0.00 0.00 0.00 59 1016.4
20260507001530 74 286 1.0 8.0 0.00 0.00 0.00 60 1016.4
20260507001012 73 324 3.0 8.0 0.00 0.00 0.00 62 1016.4
20260507000512 73 68 1.0 6.0 0.00 0.00 0.00 60 1016.4
20260507000030 74 338 1.0 6.0 0.00 0.00 0.00 59 1016.4
20260506235514 74 51 3.0 6.0 0.00 0.00 0.00 59 1016.5
20260506235013 74 18 2.0 6.0 0.00 0.00 0.00 60 1016.5
20260506234528 74 336 0.0 6.0 0.00 0.00 0.00 60 1016.6
20260506234011 74 76 1.0 6.0 0.00 0.00 0.00 59 1016.6
20260506233514 74 0 0.0 6.0 0.00 0.00 0.00 60 1016.6
20260506233030 73 313 2.0 8.0 0.00 0.00 0.00 61 1016.7
20260506232511 73 38 2.0 8.0 0.00 0.00 0.00 60 1016.7
20260506232013 73 30 2.0 8.0 0.00 0.00 0.00 62 1016.8
20260506231528 74 22 0.0 4.0 0.00 0.00 0.00 59 1016.7
20260506231013 74 0 1.0 4.0 0.00 0.00 0.00 60 1016.7
20260506230512 73 350 0.0 8.0 0.00 0.00 0.00 59 1017.0
20260506230028 72 36 2.0 8.0 0.00 0.00 0.00 62 1017.1
20260506225513 73 335 3.0 10.0 0.00 0.00 0.00 60 1017.2
20260506225015 73 332 2.0 10.0 0.00 0.00 0.00 63 1017.3
20260506224530 73 67 4.0 10.0 0.00 0.00 0.00 62 1017.3
20260506224014 73 0 1.0 9.0 0.00 0.00 0.00 62 1017.4
20260506223515 72 65 4.0 10.0 0.00 0.00 0.00 64 1017.5
20260506223029 73 34 1.0 10.0 0.00 0.00 0.00 62 1017.5
20260506222512 73 82 2.0 6.0 0.00 0.00 0.00 58 1017.6
20260506222013 74 235 1.0 6.0 0.00 0.00 0.00 57 1017.7
20260506221529 72 113 3.0 8.0 0.00 0.00 0.00 59 1017.8
20260506221014 71 0 2.0 8.0 0.00 0.00 0.00 60 1017.9
20260506220514 72 355 1.0 9.0 0.00 0.00 0.00 62 1017.9
20260506220037 73 236 5.0 10.0 0.00 0.00 0.00 58 1017.9
20260506215512 74 261 1.0 10.0 0.00 0.00 0.00 60 1018.0
20260506215012 72 298 5.0 10.0 0.00 0.00 0.00 63 1018.0
20260506214528 71 276 0.0 6.0 0.00 0.00 0.00 60 1018.0
20260506214012 71 28 2.0 8.0 0.00 0.00 0.00 64 1018.2
20260506213511 72 351 2.0 8.0 0.00 0.00 0.00 63 1018.1
20260506213032 72 0 1.0 9.0 0.00 0.00 0.00 61 1018.3
20260506212514 71 24 3.0 9.0 0.00 0.00 0.00 62 1018.3
20260506212012 71 322 3.0 8.0 0.00 0.00 0.00 66 1018.4
20260506211532 70 323 1.0 8.0 0.00 0.00 0.00 65 1018.4
20260506211012 69 332 3.0 6.0 0.00 0.00 0.00 64 1018.5
20260506210513 70 24 2.0 8.0 0.00 0.00 0.00 64 1018.6
20260506210032 70 355 3.0 8.0 0.00 0.00 0.00 65 1018.6
20260506205513 70 355 3.0 9.0 0.00 0.00 0.00 63 1018.6
20260506205011 72 71 2.0 9.0 0.00 0.00 0.00 61 1018.7
20260506204529 74 0 1.0 9.0 0.00 0.00 0.00 58 1018.8
20260506204017 73 327 5.0 9.0 0.00 0.00 0.00 62 1018.8
20260506203512 71 317 3.0 9.0 0.00 0.00 0.00 63 1019.0
20260506203029 70 24 3.0 9.0 0.00 0.00 0.00 66 1019.1
20260506202513 70 30 3.0 9.0 0.00 0.00 0.00 62 1019.2
20260506202017 72 294 2.0 8.0 0.00 0.00 0.00 63 1019.2
20260506201530 72 317 3.0 8.0 0.00 0.00 0.00 65 1019.3
20260506201013 70 92 3.0 7.0 0.00 0.00 0.00 66 1019.3
20260506200512 69 355 1.0 8.0 0.00 0.00 0.00 69 1019.3
20260506200027 68 18 2.0 11.0 0.00 0.00 0.00 66 1019.4
20260506195512 70 9 3.0 11.0 0.00 0.00 0.00 66 1019.4
20260506195011 69 337 2.0 8.0 0.00 0.00 0.00 70 1019.4
20260506194530 68 319 3.0 8.0 0.00 0.00 0.00 65 1019.5
20260506194013 69 268 2.0 8.0 0.00 0.00 0.00 66 1019.5
20260506193513 69 302 2.0 7.0 0.00 0.00 0.00 70 1019.6
20260506193030 67 336 1.0 6.0 0.00 0.00 0.00 70 1019.7
20260506192513 68 53 2.0 6.0 0.00 0.00 0.00 66 1019.7
20260506192013 69 341 3.0 6.0 0.00 0.00 0.00 68 1019.7
20260506191528 68 278 4.0 7.0 0.00 0.00 0.00 70 1019.7
20260506191014 68 16 1.0 7.0 0.00 0.00 0.00 68 1019.9
20260506190517 69 360 2.0 7.0 0.00 0.00 0.00 67 1019.9
20260506190028 69 43 2.0 7.0 0.00 0.00 0.00 67 1019.8
20260506185512 68 337 2.0 5.0 0.00 0.00 0.00 68 1019.9
20260506185013 69 302 2.0 7.0 0.00 0.00 0.00 69 1019.8
20260506184529 68 291 2.0 7.0 0.00 0.00 0.00 68 1019.8
20260506184020 68 310 3.0 7.0 0.00 0.00 0.00 74 1020.0
20260506183514 68 82 2.0 7.0 0.00 0.00 0.00 70 1020.0
20260506183028 67 15 2.0 7.0 0.00 0.00 0.00 71 1020.1
20260506182513 68 285 4.0 7.0 0.00 0.00 0.00 70 1020.1
20260506182014 67 279 3.0 7.0 0.00 0.00 0.00 75 1020.2
20260506181530 67 317 2.0 7.0 0.00 0.00 0.00 75 1020.2
20260506181013 66 246 2.0 7.0 0.00 0.00 0.00 72 1020.1
20260506180513 66 0 1.0 6.0 0.00 0.00 0.00 72 1020.2
20260506180030 65 287 2.0 6.0 0.00 0.00 0.00 77 1020.2
20260506175515 65 25 2.0 6.0 0.00 0.00 0.00 74 1020.1
20260506175017 64 315 1.0 6.0 0.00 0.00 0.00 76 1020.2
20260506174527 64 0 1.0 4.0 0.00 0.00 0.00 77 1020.3
20260506174012 64 288 3.0 4.0 0.00 0.00 0.00 78 1020.2
20260506173514 64 0 0.0 4.0 0.00 0.00 0.00 74 1020.2
20260506173033 64 292 1.0 5.0 0.00 0.00 0.00 77 1020.3
20260506172512 64 248 1.0 7.0 0.00 0.00 0.00 78 1020.2
20260506172013 63 294 3.0 7.0 0.00 0.00 0.00 79 1020.2
20260506171530 63 231 4.0 7.0 0.00 0.00 0.00 80 1020.2
20260506171012 62 279 2.0 4.0 0.00 0.00 0.00 79 1020.2
20260506170512 62 0 1.0 4.0 0.00 0.00 0.00 79 1020.2
20260506170028 62 300 1.0 4.0 0.00 0.00 0.00 77 1020.3
20260506165514 62 285 2.0 6.0 0.00 0.00 0.00 79 1020.3
20260506165014 61 0 2.0 7.0 0.00 0.00 0.00 79 1020.3
20260506164528 61 276 3.0 7.0 0.00 0.00 0.00 79 1020.3
20260506164011 61 275 2.0 4.0 0.00 0.00 0.00 80 1020.3
20260506163511 61 254 1.0 5.0 0.00 0.00 0.00 80 1020.2
20260506163032 60 273 3.0 5.0 0.00 0.00 0.00 81 1020.2
20260506162513 60 190 3.0 5.0 0.00 0.00 0.00 81 1020.2
20260506162016 60 223 1.0 4.0 0.00 0.00 0.00 83 1020.2
20260506161534 60 216 1.0 4.0 0.00 0.00 0.00 81 1020.2
20260506161013 59 211 2.0 4.0 0.00 0.00 0.00 81 1020.2
20260506160517 59 241 2.0 4.0 0.00 0.00 0.00 81 1020.2
20260506160031 59 273 2.0 4.0 0.00 0.00 0.00 81 1020.3
20260506155514 59 254 2.0 4.0 0.00 0.00 0.00 81 1020.2
20260506155012 59 246 3.0 4.0 0.00 0.00 0.00 81 1020.1
20260506154532 59 240 1.0 4.0 0.00 0.00 0.00 82 1020.2
20260506154013 59 267 2.0 4.0 0.00 0.00 0.00 82 1020.2
20260506153511 58 277 2.0 6.0 0.00 0.00 0.00 82 1020.1
20260506153028 58 252 3.0 6.0 0.00 0.00 0.00 82 1020.2
20260506152512 58 210 3.0 5.0 0.00 0.00 0.00 82 1020.1
20260506152013 58 226 3.0 5.0 0.00 0.00 0.00 83 1020.1
20260506151530 58 180 2.0 5.0 0.00 0.00 0.00 83 1020.1
20260506151015 58 215 2.0 5.0 0.00 0.00 0.00 83 1020.1
20260506150512 58 219 2.0 5.0 0.00 0.00 0.00 84 1020.1
20260506150029 58 202 2.0 5.0 0.00 0.00 0.00 84 1020.1
20260506145510 58 217 2.0 4.0 0.00 0.00 0.00 85 1020.0
20260506145013 57 214 1.0 3.0 0.00 0.00 0.00 85 1020.0
20260506144529 57 190 1.0 3.0 0.00 0.00 0.00 85 1020.1
20260506144012 57 180 1.0 3.0 0.00 0.00 0.00 85 1020.1
20260506143513 57 188 1.0 3.0 0.00 0.00 0.00 85 1020.0
20260506143030 57 178 2.0 3.0 0.00 0.00 0.00 86 1019.9
20260506142513 56 0 0.0 3.0 0.00 0.00 0.00 86 1019.9
20260506142010 56 184 2.0 3.0 0.00 0.00 0.00 86 1019.9
20260506141534 56 0 0.0 4.0 0.00 0.00 0.00 87 1019.8
20260506141012 56 0 0.0 4.0 0.00 0.00 0.00 87 1019.8
20260506140513 56 171 0.0 3.0 0.00 0.00 0.00 87 1019.8
20260506140028 56 0 0.0 0.0 0.00 0.00 0.00 87 1019.7
20260506135512 56 0 0.0 0.0 0.00 0.00 0.00 87 1019.6
20260506135017 56 0 0.0 0.0 0.00 0.00 0.00 87 1019.6
20260506134527 56 0 0.0 1.0 0.00 0.00 0.00 87 1019.5
20260506134012 56 0 0.0 1.0 0.00 0.00 0.00 87 1019.6
20260506133512 56 0 0.0 1.0 0.00 0.00 0.00 87 1019.5
20260506133030 56 0 0.0 0.0 0.00 0.00 0.00 87 1019.5
20260506132514 56 0 0.0 0.0 0.00 0.00 0.00 87 1019.6
20260506132013 56 0 0.0 0.0 0.00 0.00 0.00 86 1019.5
20260506131528 56 0 0.0 0.0 0.00 0.00 0.00 86 1019.4
20260506131013 56 0 0.0 1.0 0.00 0.00 0.00 86 1019.5
20260506130514 56 0 0.0 1.0 0.00 0.00 0.00 86 1019.5
20260506130028 56 0 0.0 1.0 0.00 0.00 0.00 86 1019.4
20260506125513 56 0 0.0 2.0 0.00 0.00 0.00 86 1019.3
20260506125012 56 0 0.0 3.0 0.00 0.00 0.00 86 1019.3
20260506124529 56 191 0.0 4.0 0.00 0.00 0.00 86 1019.3
20260506124013 56 191 1.0 4.0 0.00 0.00 0.00 86 1019.3
20260506123515 56 191 1.0 3.0 0.00 0.00 0.00 86 1019.2
20260506123029 56 0 0.0 0.0 0.00 0.00 0.00 86 1019.2
20260506122513 56 0 0.0 0.0 0.00 0.00 0.00 85 1019.2
20260506122018 56 0 0.0 1.0 0.00 0.00 0.00 85 1019.2
20260506121529 56 0 0.0 1.0 0.00 0.00 0.00 85 1019.2
20260506121014 56 0 0.0 1.0 0.00 0.00 0.00 85 1019.1
20260506120511 56 0 0.0 1.0 0.00 0.00 0.00 85 1019.1
20260506120031 56 0 0.0 0.0 0.00 0.00 0.00 85 1019.1
20260506115516 56 0 0.0 3.0 0.00 0.00 0.00 85 1019.1
20260506115016 56 0 0.0 4.0 0.00 0.00 0.00 85 1019.1
20260506114528 56 161 0.0 4.0 0.00 0.00 0.00 85 1019.0
20260506114013 56 0 0.0 3.0 0.00 0.00 0.00 85 1019.0
20260506113513 56 0 0.0 3.0 0.00 0.00 0.00 85 1018.9
20260506113030 56 0 0.0 0.0 0.00 0.00 0.00 85 1018.9
20260506112513 56 0 0.0 0.0 0.00 0.00 0.00 85 1019.0
20260506112010 56 0 0.0 1.0 0.00 0.00 0.00 85 1018.9
20260506111527 56 0 0.0 4.0 0.00 0.00 0.00 85 1018.9
20260506111012 56 0 0.0 5.0 0.00 0.00 0.00 85 1018.7
20260506110512 56 188 2.0 5.0 0.00 0.00 0.00 85 1018.7
20260506110029 56 173 0.0 5.0 0.00 0.00 0.00 85 1018.7
20260506105512 56 0 0.0 5.0 0.00 0.01 0.00 85 1018.6
20260506105016 56 0 0.0 2.0 0.00 0.01 0.00 85 1018.6
20260506104529 56 0 0.0 2.0 0.00 0.01 0.00 85 1018.6
20260506104016 56 0 0.0 1.0 0.00 0.01 0.00 85 1018.5
20260506103514 56 0 0.0 0.0 0.00 0.01 0.00 85 1018.6
20260506103029 56 0 0.0 1.0 0.00 0.01 0.00 85 1018.6
20260506102514 56 0 0.0 1.0 0.00 0.01 0.00 85 1018.5
20260506102010 57 0 0.0 4.0 0.00 0.01 0.00 85 1018.3
20260506101530 57 0 0.0 4.0 0.00 0.01 0.00 85 1018.3
20260506101014 57 187 1.0 4.0 0.00 0.01 0.00 85 1018.2
20260506100517 57 178 2.0 4.0 0.00 0.01 0.00 85 1018.3
20260506100027 57 193 2.0 4.0 0.00 0.01 0.00 85 1018.3
20260506095512 57 177 0.0 3.0 0.00 0.01 0.00 85 1018.2
20260506095012 57 0 1.0 3.0 0.00 0.01 0.00 85 1018.4
20260506094530 57 216 0.0 3.0 0.00 0.01 0.00 84 1018.2
20260506094012 57 0 0.0 3.0 0.00 0.01 0.00 84 1018.3
20260506093514 57 216 1.0 3.0 0.00 0.01 0.00 84 1018.3
20260506093037 57 0 0.0 3.0 0.00 0.01 0.00 84 1018.3
20260506092513 57 0 0.0 3.0 0.00 0.01 0.00 84 1018.3
20260506092016 57 202 0.0 4.0 0.00 0.01 0.00 84 1018.3
20260506091531 57 202 2.0 4.0 0.00 0.01 0.00 84 1018.3
20260506091014 57 196 1.0 4.0 0.00 0.01 0.00 84 1018.3
20260506090514 57 192 2.0 4.0 0.00 0.01 0.00 84 1018.2
20260506090028 57 218 1.0 4.0 0.00 0.01 0.00 84 1018.2
20260506085513 57 217 2.0 4.0 0.00 0.01 0.00 83 1018.3
20260506085014 57 196 2.0 4.0 0.00 0.01 0.00 83 1018.3
20260506084534 57 215 2.0 4.0 0.00 0.01 0.00 84 1018.2
20260506084012 57 194 2.0 4.0 0.00 0.01 0.00 84 1018.3
20260506083513 57 207 1.0 4.0 0.00 0.01 0.00 84 1018.4
20260506083031 57 194 1.0 3.0 0.00 0.01 0.00 84 1018.4
20260506082513 57 198 1.0 3.0 0.00 0.01 0.00 84 1018.5
20260506082012 57 242 2.0 3.0 0.00 0.01 0.00 85 1018.4
20260506081528 57 187 0.0 2.0 0.00 0.01 0.00 85 1018.4
20260506081012 57 0 0.0 2.0 0.00 0.01 0.00 85 1018.4
20260506080511 57 0 0.0 1.0 0.00 0.01 0.00 85 1018.4
20260506073512 57 0 0.0 0.0 0.00 0.04 0.00 85 1018.1
20260506073029 57 0 0.0 0.0 0.00 0.04 0.00 84 1018.1
20260506072512 57 0 0.0 1.0 0.00 0.04 0.00 84 1018.0
20260506072014 57 0 0.0 2.0 0.00 0.04 0.00 84 1017.9
20260506071530 57 0 0.0 3.0 0.00 0.04 0.00 84 1018.0
20260506071013 57 259 0.0 3.0 0.00 0.04 0.00 84 1017.8
20260506070514 57 259 0.0 3.0 0.00 0.04 0.00 84 1017.8
20260506062512 57 269 3.0 6.0 0.00 0.07 0.04 84 1017.4
20260506062013 57 273 1.0 6.0 0.00 0.07 0.04 84 1017.4
20260506061528 57 288 1.0 6.0 0.00 0.07 0.04 84 1017.4
20260506061012 57 268 1.0 4.0 0.00 0.07 0.04 84 1017.3
20260506060513 57 306 2.0 6.0 0.00 0.07 0.04 84 1017.4